KADW Airport (Joint Base Andrews) Information

FAA: ADW - ICAO: KADW

KADW Airport Location

State Maryland
County Prince Georges
City Camp Springs
KADW Airport is 3 miles east of Camp Springs, MD.
Latitude 38-48-38.9720N
Longitude 076-52-01.3670W
Elevation 279ft

KADW Airport METARs

METAR KADW 080556Z AUTO 08005KT 10SM CLR 00/M06 A3010 RMK AO2 SLP202 T00011061 10005 21030 57024 $
Altimeter 30.10"
Temperature 0.1°C (32.2°F)
Wind 80° at 5KT
Clouds Skies are clear.
Visibility 10.0mi
Time observed: 2021-12-08T05:56:00Z

KADW Airport Details

Status Operational
Activation February 1944
Ownership Military - Air Force
Usage Private
Chart WASHINGTON
ATC on-site Yes
Beacon schedule sunset-sunrise
Beacon color clear green

KADW Airport Contacts

Owner USAF
Owner address ANDREWS AFB, WASHINGTON, DC 20331
Owner phone 301-981-1110
Manager ROBERT BUNTING
Manager address 9758 CAREY RD, BERLIN, MD 21811
Manager phone 410-641-2484

KADW Airport (Joint Base Andrews) Radio Frequencies

KADW (Airport) Radio Frequencies

UNICOM N/A
Common traffic advisory frequency (CTAF) N/A